N17X KCZK-KPDX
Flight info
| Callsign | N17X |
|---|---|
| Flight time | 0h 15m |
| Altitude | 3500 |
| Route | DCT |
| Aircraft | H500/L-DGV/C |
Departure
| Time | 2026-05-07 23:53 |
|---|---|
| Airport | Cascade Locks State Airport (KCZK) |
Arrival
| Time | 2026-05-08 00:08 |
|---|---|
| Airport | Portland International Airport (KPDX) |
| Time | Latitude | Longitude | Altitude | Speed | Heading |
|---|---|---|---|---|---|
| 2026-05-07 23:51 | 45.64423 | -121.93644 | 203 ft | 74 kts | 253° |
| 2026-05-07 23:51 | 45.64439 | -121.94383 | 204 ft | 72 kts | 271° |
| 2026-05-07 23:52 | 45.64521 | -121.95034 | 387 ft | 71 kts | 284° |
| 2026-05-07 23:52 | 45.64730 | -121.95745 | 495 ft | 84 kts | 296° |
| 2026-05-07 23:52 | 45.64547 | -121.96395 | 641 ft | 82 kts | 195° |
| 2026-05-07 23:52 | 45.64165 | -121.95822 | 667 ft | 93 kts | 89° |
| 2026-05-07 23:53 | 45.64614 | -121.95233 | 698 ft | 95 kts | 358° |
| 2026-05-07 23:53 | 45.65066 | -121.95703 | 814 ft | 79 kts | 281° |
| 2026-05-07 23:53 | 45.64927 | -121.96456 | 885 ft | 86 kts | 246° |
| 2026-05-07 23:53 | 45.64549 | -121.97171 | 910 ft | 97 kts | 229° |
| 2026-05-07 23:54 | 45.64107 | -121.97924 | 910 ft | 97 kts | 233° |
| 2026-05-07 23:54 | 45.63722 | -121.98702 | 948 ft | 97 kts | 236° |
| 2026-05-07 23:54 | 45.63375 | -121.99513 | 990 ft | 95 kts | 242° |
| 2026-05-07 23:54 | 45.63074 | -122.00343 | 1074 ft | 94 kts | 248° |
| 2026-05-07 23:55 | 45.62813 | -122.01222 | 1125 ft | 101 kts | 249° |
| 2026-05-07 23:55 | 45.62460 | -122.02142 | 1069 ft | 109 kts | 241° |
| 2026-05-07 23:55 | 45.62028 | -122.03052 | 1035 ft | 111 kts | 237° |
| 2026-05-07 23:55 | 45.61585 | -122.03968 | 1022 ft | 112 kts | 237° |
| 2026-05-07 23:56 | 45.61140 | -122.04896 | 1018 ft | 113 kts | 239° |
| 2026-05-07 23:56 | 45.60696 | -122.05827 | 1017 ft | 113 kts | 237° |
| 2026-05-07 23:56 | 45.60251 | -122.06753 | 1016 ft | 114 kts | 237° |
| 2026-05-07 23:56 | 45.59795 | -122.07684 | 1012 ft | 114 kts | 237° |
| 2026-05-07 23:57 | 45.59320 | -122.08592 | 1018 ft | 115 kts | 236° |
| 2026-05-07 23:57 | 45.58861 | -122.09525 | 1021 ft | 115 kts | 243° |
| 2026-05-07 23:57 | 45.58548 | -122.10571 | 1028 ft | 114 kts | 254° |
| 2026-05-07 23:57 | 45.58349 | -122.11676 | 1029 ft | 117 kts | 260° |
| 2026-05-07 23:58 | 45.58175 | -122.12832 | 1031 ft | 121 kts | 260° |
| 2026-05-07 23:58 | 45.57999 | -122.14021 | 1034 ft | 124 kts | 255° |
| 2026-05-07 23:58 | 45.57833 | -122.15254 | 1036 ft | 128 kts | 257° |
| 2026-05-07 23:58 | 45.57685 | -122.16494 | 1036 ft | 128 kts | 257° |
| 2026-05-07 23:59 | 45.57477 | -122.17720 | 1038 ft | 126 kts | 251° |
| 2026-05-07 23:59 | 45.57150 | -122.18885 | 1042 ft | 124 kts | 239° |
| 2026-05-07 23:59 | 45.56644 | -122.19857 | 1043 ft | 123 kts | 230° |
| 2026-05-07 23:59 | 45.56099 | -122.20816 | 1045 ft | 124 kts | 237° |
| 2026-05-08 00:00 | 45.55662 | -122.21871 | 1043 ft | 125 kts | 248° |
| 2026-05-08 00:00 | 45.55404 | -122.23054 | 1046 ft | 125 kts | 261° |
| 2026-05-08 00:00 | 45.55274 | -122.24273 | 1050 ft | 124 kts | 265° |
| 2026-05-08 00:00 | 45.55203 | -122.25497 | 1050 ft | 123 kts | 273° |
| 2026-05-08 00:01 | 45.55307 | -122.26693 | 1056 ft | 122 kts | 282° |
| 2026-05-08 00:01 | 45.55500 | -122.27884 | 1052 ft | 124 kts | 285° |
| 2026-05-08 00:01 | 45.55716 | -122.29073 | 1058 ft | 125 kts | 285° |
| 2026-05-08 00:01 | 45.55929 | -122.30283 | 1054 ft | 127 kts | 285° |
| 2026-05-08 00:02 | 45.56139 | -122.31497 | 1052 ft | 125 kts | 284° |
| 2026-05-08 00:02 | 45.56297 | -122.32714 | 1057 ft | 126 kts | 278° |
| 2026-05-08 00:02 | 45.56370 | -122.33966 | 1057 ft | 128 kts | 272° |
| 2026-05-08 00:02 | 45.56431 | -122.35222 | 1054 ft | 125 kts | 276° |
| 2026-05-08 00:03 | 45.56545 | -122.36443 | 1057 ft | 123 kts | 279° |
| 2026-05-08 00:03 | 45.56664 | -122.37638 | 1055 ft | 120 kts | 279° |
| 2026-05-08 00:03 | 45.56777 | -122.38824 | 1055 ft | 121 kts | 280° |
| 2026-05-08 00:03 | 45.56882 | -122.40011 | 1055 ft | 120 kts | 279° |
| 2026-05-08 00:04 | 45.56980 | -122.41201 | 1053 ft | 121 kts | 278° |
| 2026-05-08 00:04 | 45.56997 | -122.42396 | 1051 ft | 120 kts | 270° |
| 2026-05-08 00:04 | 45.56906 | -122.43565 | 1055 ft | 119 kts | 259° |
| 2026-05-08 00:04 | 45.56641 | -122.44696 | 1053 ft | 121 kts | 255° |
| 2026-05-08 00:05 | 45.56465 | -122.45875 | 1045 ft | 121 kts | 265° |
| 2026-05-08 00:05 | 45.56378 | -122.47076 | 967 ft | 123 kts | 270° |
| 2026-05-08 00:05 | 45.56339 | -122.48316 | 813 ft | 126 kts | 270° |
| 2026-05-08 00:05 | 45.56341 | -122.49550 | 721 ft | 122 kts | 272° |
| 2026-05-08 00:06 | 45.56422 | -122.50686 | 676 ft | 108 kts | 283° |
| 2026-05-08 00:06 | 45.56633 | -122.51641 | 598 ft | 95 kts | 290° |
| 2026-05-08 00:06 | 45.56873 | -122.52475 | 598 ft | 86 kts | 289° |
| 2026-05-08 00:06 | 45.57120 | -122.53254 | 579 ft | 86 kts | 292° |
| 2026-05-08 00:07 | 45.57372 | -122.54028 | 469 ft | 87 kts | 295° |
| 2026-05-08 00:07 | 45.57642 | -122.54789 | 394 ft | 86 kts | 300° |
| 2026-05-08 00:07 | 45.57925 | -122.55530 | 308 ft | 84 kts | 299° |
| 2026-05-08 00:07 | 45.58198 | -122.56264 | 213 ft | 81 kts | 295° |
| 2026-05-08 00:08 | 45.58459 | -122.56953 | 138 ft | 77 kts | 297° |
| 2026-05-08 00:08 | 45.58661 | -122.57482 | 74 ft | 40 kts | 283° |
| 2026-05-08 00:08 | 45.58571 | -122.57716 | 44 ft | 27 kts | 236° |
| 2026-05-08 00:08 | 45.58524 | -122.57847 | 27 ft | 4 kts | 236° |
| 2026-05-08 00:09 | 45.58519 | -122.57848 | 14 ft | 0 kts | 207° |